sensor_id;sensor_type;location;lat;lon;timestamp;pressure;altitude;pressure_sealevel;temperature;humidity
40155;BME280;25875;48.202;16.334;2023-05-16T00:00:59;98612.38;;;13.43;61.56
40155;BME280;25875;48.202;16.334;2023-05-16T00:03:28;98623.03;;;13.54;61.54
40155;BME280;25875;48.202;16.334;2023-05-16T00:05:55;98622.19;;;13.54;61.50
40155;BME280;25875;48.202;16.334;2023-05-16T00:08:22;98628.50;;;13.53;61.46
40155;BME280;25875;48.202;16.334;2023-05-16T00:10:49;98629.34;;;13.53;61.68
40155;BME280;25875;48.202;16.334;2023-05-16T00:13:15;98618.94;;;13.50;61.55
40155;BME280;25875;48.202;16.334;2023-05-16T00:15:46;98609.38;;;13.47;61.63
40155;BME280;25875;48.202;16.334;2023-05-16T00:18:13;98612.88;;;13.48;61.20
40155;BME280;25875;48.202;16.334;2023-05-16T00:20:44;98591.06;;;13.32;61.33
40155;BME280;25875;48.202;16.334;2023-05-16T00:23:11;98619.28;;;13.45;61.58
40155;BME280;25875;48.202;16.334;2023-05-16T00:25:38;98622.91;;;13.44;61.31
40155;BME280;25875;48.202;16.334;2023-05-16T00:28:05;98611.44;;;13.44;61.30
40155;BME280;25875;48.202;16.334;2023-05-16T00:30:32;98615.13;;;13.41;61.37
40155;BME280;25875;48.202;16.334;2023-05-16T00:32:59;98621.22;;;13.43;61.51
40155;BME280;25875;48.202;16.334;2023-05-16T00:35:26;98613.44;;;13.40;61.47
40155;BME280;25875;48.202;16.334;2023-05-16T00:37:54;98615.25;;;13.40;61.71
40155;BME280;25875;48.202;16.334;2023-05-16T00:40:21;98615.25;;;13.40;61.51
40155;BME280;25875;48.202;16.334;2023-05-16T00:42:47;98494.03;;;12.69;61.70
40155;BME280;25875;48.202;16.334;2023-05-16T00:45:14;98603.66;;;13.41;61.72
40155;BME280;25875;48.202;16.334;2023-05-16T00:47:41;98606.31;;;13.41;61.88
40155;BME280;25875;48.202;16.334;2023-05-16T00:50:08;98599.16;;;13.41;61.89
40155;BME280;25875;48.202;16.334;2023-05-16T00:52:35;98601.09;;;13.39;61.57
40155;BME280;25875;48.202;16.334;2023-05-16T00:55:05;98599.41;;;13.38;61.51
40155;BME280;25875;48.202;16.334;2023-05-16T00:57:32;98611.75;;;13.39;61.58
40155;BME280;25875;48.202;16.334;2023-05-16T00:59:59;98618.88;;;13.39;61.69
40155;BME280;25875;48.202;16.334;2023-05-16T01:02:27;98610.19;;;13.37;61.58
40155;BME280;25875;48.202;16.334;2023-05-16T01:04:54;98588.28;;;13.22;61.70
40155;BME280;25875;48.202;16.334;2023-05-16T01:07:21;98599.66;;;13.35;61.60
40155;BME280;25875;48.202;16.334;2023-05-16T01:09:48;98597.13;;;13.34;61.27
40155;BME280;25875;48.202;16.334;2023-05-16T01:12:26;98594.44;;;13.34;61.44
40155;BME280;25875;48.202;16.334;2023-05-16T01:15:03;98600.75;;;13.33;61.72
40155;BME280;25875;48.202;16.334;2023-05-16T01:17:49;98601.72;;;13.32;61.73
40155;BME280;25875;48.202;16.334;2023-05-16T01:20:30;98600.13;;;13.29;61.48
40155;BME280;25875;48.202;16.334;2023-05-16T01:23:08;98609.94;;;13.29;61.43
40155;BME280;25875;48.202;16.334;2023-05-16T01:25:47;98600.97;;;13.30;61.64
40155;BME280;25875;48.202;16.334;2023-05-16T01:28:23;98602.69;;;13.31;61.55
40155;BME280;25875;48.202;16.334;2023-05-16T01:30:51;98605.22;;;13.32;61.35
40155;BME280;25875;48.202;16.334;2023-05-16T01:33:18;98602.69;;;13.31;61.47
40155;BME280;25875;48.202;16.334;2023-05-16T01:35:52;98602.06;;;13.27;61.58
40155;BME280;25875;48.202;16.334;2023-05-16T01:38:24;98602.06;;;13.27;61.49
40155;BME280;25875;48.202;16.334;2023-05-16T01:40:54;98611.00;;;13.26;61.53
40155;BME280;25875;48.202;16.334;2023-05-16T01:43:34;98606.66;;;13.25;61.63
40155;BME280;25875;48.202;16.334;2023-05-16T01:46:06;98600.63;;;13.23;61.62
40155;BME280;25875;48.202;16.334;2023-05-16T01:48:39;98533.69;;;12.83;61.68
40155;BME280;25875;48.202;16.334;2023-05-16T01:51:09;98537.94;;;12.86;61.71
40155;BME280;25875;48.202;16.334;2023-05-16T01:53:38;98580.41;;;13.21;61.77
40155;BME280;25875;48.202;16.334;2023-05-16T01:56:08;98579.69;;;13.19;61.55
40155;BME280;25875;48.202;16.334;2023-05-16T01:58:38;98577.75;;;13.21;61.66
40155;BME280;25875;48.202;16.334;2023-05-16T02:01:05;98519.31;;;12.86;61.62
40155;BME280;25875;48.202;16.334;2023-05-16T02:03:32;98495.00;;;12.68;61.90
40155;BME280;25875;48.202;16.334;2023-05-16T02:05:59;98569.66;;;13.22;61.82
40155;BME280;25875;48.202;16.334;2023-05-16T02:08:26;98577.75;;;13.21;62.15
40155;BME280;25875;48.202;16.334;2023-05-16T02:10:53;98591.06;;;13.21;61.99
40155;BME280;25875;48.202;16.334;2023-05-16T02:13:20;98598.19;;;13.20;62.21
40155;BME280;25875;48.202;16.334;2023-05-16T02:15:48;98595.28;;;13.23;62.04
40155;BME280;25875;48.202;16.334;2023-05-16T02:18:15;98584.66;;;13.23;62.11
40155;BME280;25875;48.202;16.334;2023-05-16T02:20:43;98590.81;;;13.24;62.14
40155;BME280;25875;48.202;16.334;2023-05-16T02:23:10;98587.31;;;13.23;61.94
40155;BME280;25875;48.202;16.334;2023-05-16T02:25:36;98534.69;;;12.93;62.22
40155;BME280;25875;48.202;16.334;2023-05-16T02:28:03;98585.63;;;13.22;62.21
40155;BME280;25875;48.202;16.334;2023-05-16T02:30:31;98580.28;;;13.22;62.13
40155;BME280;25875;48.202;16.334;2023-05-16T02:32:59;98581.25;;;13.21;61.88
40155;BME280;25875;48.202;16.334;2023-05-16T02:35:26;98509.88;;;12.70;62.02
40155;BME280;25875;48.202;16.334;2023-05-16T02:37:52;98585.72;;;13.21;62.23
40155;BME280;25875;48.202;16.334;2023-05-16T02:40:20;98584.03;;;13.20;62.09
40155;BME280;25875;48.202;16.334;2023-05-16T02:42:46;98588.41;;;13.21;62.50
40155;BME280;25875;48.202;16.334;2023-05-16T02:45:13;98582.22;;;13.20;62.46
40155;BME280;25875;48.202;16.334;2023-05-16T02:47:40;98584.88;;;13.20;62.31
40155;BME280;25875;48.202;16.334;2023-05-16T02:50:09;98573.41;;;13.20;62.24
40155;BME280;25875;48.202;16.334;2023-05-16T02:52:36;98565.53;;;13.18;62.20
40155;BME280;25875;48.202;16.334;2023-05-16T02:55:03;98563.84;;;13.17;62.02
40155;BME280;25875;48.202;16.334;2023-05-16T02:57:30;98566.63;;;13.15;62.21
40155;BME280;25875;48.202;16.334;2023-05-16T02:59:57;98553.31;;;13.15;62.50
40155;BME280;25875;48.202;16.334;2023-05-16T03:02:24;98543.66;;;13.14;62.57
40155;BME280;25875;48.202;16.334;2023-05-16T03:04:51;98557.91;;;13.13;62.43
40155;BME280;25875;48.202;16.334;2023-05-16T03:07:19;98547.41;;;13.12;62.47
40155;BME280;25875;48.202;16.334;2023-05-16T03:09:46;98541.34;;;13.10;62.67
40155;BME280;25875;48.202;16.334;2023-05-16T03:12:12;98537.72;;;13.11;62.79
40155;BME280;25875;48.202;16.334;2023-05-16T03:14:39;98539.53;;;13.10;62.95
40155;BME280;25875;48.202;16.334;2023-05-16T03:17:06;98536.88;;;13.10;62.99
40155;BME280;25875;48.202;16.334;2023-05-16T03:19:33;98527.06;;;13.11;63.06
40155;BME280;25875;48.202;16.334;2023-05-16T03:22:00;98533.13;;;13.13;63.10
40155;BME280;25875;48.202;16.334;2023-05-16T03:24:28;98532.16;;;13.14;63.02
40155;BME280;25875;48.202;16.334;2023-05-16T03:26:55;98533.00;;;13.14;62.94
40155;BME280;25875;48.202;16.334;2023-05-16T03:29:21;98527.69;;;13.14;62.79
40155;BME280;25875;48.202;16.334;2023-05-16T03:31:48;98517.75;;;13.16;62.82
40155;BME280;25875;48.202;16.334;2023-05-16T03:34:15;98524.91;;;13.16;62.87
40155;BME280;25875;48.202;16.334;2023-05-16T03:36:41;98531.06;;;13.16;62.49
40155;BME280;25875;48.202;16.334;2023-05-16T03:39:08;98538.09;;;13.18;62.45
40155;BME280;25875;48.202;16.334;2023-05-16T03:41:37;98537.13;;;13.19;62.47
40155;BME280;25875;48.202;16.334;2023-05-16T03:44:04;98535.31;;;13.19;62.47
40155;BME280;25875;48.202;16.334;2023-05-16T03:46:30;98543.41;;;13.18;62.59
40155;BME280;25875;48.202;16.334;2023-05-16T03:48:58;98550.41;;;13.19;62.25
40155;BME280;25875;48.202;16.334;2023-05-16T03:51:24;98546.06;;;13.18;62.42
40155;BME280;25875;48.202;16.334;2023-05-16T03:53:51;98556.72;;;13.18;62.26
40155;BME280;25875;48.202;16.334;2023-05-16T03:56:18;98564.69;;;13.18;62.29
40155;BME280;25875;48.202;16.334;2023-05-16T03:58:47;98576.19;;;13.18;62.63
40155;BME280;25875;48.202;16.334;2023-05-16T04:01:14;98584.16;;;13.18;62.52
40155;BME280;25875;48.202;16.334;2023-05-16T04:03:41;98569.03;;;13.19;62.41
40155;BME280;25875;48.202;16.334;2023-05-16T04:06:07;98563.72;;;13.19;62.65
40155;BME280;25875;48.202;16.334;2023-05-16T04:08:34;98560.22;;;13.18;62.51
40155;BME280;25875;48.202;16.334;2023-05-16T04:11:03;98555.97;;;13.15;62.69
40155;BME280;25875;48.202;16.334;2023-05-16T04:13:30;98557.78;;;13.15;63.03
40155;BME280;25875;48.202;16.334;2023-05-16T04:15:58;98549.81;;;13.15;63.10
40155;BME280;25875;48.202;16.334;2023-05-16T04:18:25;98539.16;;;13.15;62.71
40155;BME280;25875;48.202;16.334;2023-05-16T04:20:52;98508.09;;;12.93;62.82
40155;BME280;25875;48.202;16.334;2023-05-16T04:23:18;98494.41;;;12.87;62.66
40155;BME280;25875;48.202;16.334;2023-05-16T04:25:45;98528.41;;;13.05;62.88
40155;BME280;25875;48.202;16.334;2023-05-16T04:28:12;98547.53;;;13.22;62.85
40155;BME280;25875;48.202;16.334;2023-05-16T04:30:39;98549.22;;;13.23;62.99
40155;BME280;25875;48.202;16.334;2023-05-16T04:33:07;98565.91;;;13.25;63.13
40155;BME280;25875;48.202;16.334;2023-05-16T04:35:33;98568.44;;;13.26;62.70
40155;BME280;25875;48.202;16.334;2023-05-16T04:38:01;98566.63;;;13.27;62.74
40155;BME280;25875;48.202;16.334;2023-05-16T04:40:29;98567.47;;;13.27;62.97
40155;BME280;25875;48.202;16.334;2023-05-16T04:42:55;98575.22;;;13.30;62.77
40155;BME280;25875;48.202;16.334;2023-05-16T04:45:22;98585.75;;;13.32;62.73
40155;BME280;25875;48.202;16.334;2023-05-16T04:47:49;98590.94;;;13.33;62.56
40155;BME280;25875;48.202;16.334;2023-05-16T04:50:17;98610.31;;;13.35;62.76
40155;BME280;25875;48.202;16.334;2023-05-16T04:52:44;98612.84;;;13.37;62.60
40155;BME280;25875;48.202;16.334;2023-05-16T04:55:11;98613.81;;;13.36;62.63
40155;BME280;25875;48.202;16.334;2023-05-16T04:57:37;98616.47;;;13.36;62.68
40155;BME280;25875;48.202;16.334;2023-05-16T05:00:06;98594.44;;;13.23;62.75
40155;BME280;25875;48.202;16.334;2023-05-16T05:02:35;98611.25;;;13.34;63.06
40155;BME280;25875;48.202;16.334;2023-05-16T05:05:02;98612.84;;;13.37;62.70
40155;BME280;25875;48.202;16.334;2023-05-16T05:07:30;98614.78;;;13.35;63.12
40155;BME280;25875;48.202;16.334;2023-05-16T05:09:56;98608.59;;;13.34;63.36
40155;BME280;25875;48.202;16.334;2023-05-16T05:12:23;98597.84;;;13.36;63.45
40155;BME280;25875;48.202;16.334;2023-05-16T05:14:51;98595.28;;;13.34;63.71
40155;BME280;25875;48.202;16.334;2023-05-16T05:17:18;98559.97;;;13.21;63.81
40155;BME280;25875;48.202;16.334;2023-05-16T05:19:45;98572.06;;;13.36;63.91
40155;BME280;25875;48.202;16.334;2023-05-16T05:22:12;98586.09;;;13.38;63.70
40155;BME280;25875;48.202;16.334;2023-05-16T05:24:40;98590.56;;;13.27;63.91
40155;BME280;25875;48.202;16.334;2023-05-16T05:27:07;98609.81;;;13.41;63.64
40155;BME280;25875;48.202;16.334;2023-05-16T05:29:34;98617.59;;;13.44;63.20
40155;BME280;25875;48.202;16.334;2023-05-16T05:32:01;98629.69;;;13.48;63.12
40155;BME280;25875;48.202;16.334;2023-05-16T05:34:27;98628.59;;;13.51;63.14
40155;BME280;25875;48.202;16.334;2023-05-16T05:36:54;98626.69;;;13.53;63.27
40155;BME280;25875;48.202;16.334;2023-05-16T05:39:21;98618.69;;;13.53;63.41
40155;BME280;25875;48.202;16.334;2023-05-16T05:41:50;98621.22;;;13.55;63.31
40155;BME280;25875;48.202;16.334;2023-05-16T05:44:16;98619.41;;;13.55;63.61
40155;BME280;25875;48.202;16.334;2023-05-16T05:46:43;98622.81;;;13.57;63.35
40155;BME280;25875;48.202;16.334;2023-05-16T05:49:11;98619.06;;;13.60;63.56
40155;BME280;25875;48.202;16.334;2023-05-16T05:51:38;98616.38;;;13.60;63.20
40155;BME280;25875;48.202;16.334;2023-05-16T05:54:05;98617.97;;;13.62;63.34
40155;BME280;25875;48.202;16.334;2023-05-16T05:56:31;98593.16;;;13.51;63.27
40155;BME280;25875;48.202;16.334;2023-05-16T05:59:00;98620.97;;;13.69;63.07
40155;BME280;25875;48.202;16.334;2023-05-16T06:01:26;98613.72;;;13.71;62.95
40155;BME280;25875;48.202;16.334;2023-05-16T06:03:53;98610.81;;;13.74;63.00
40155;BME280;25875;48.202;16.334;2023-05-16T06:06:20;98609.00;;;13.74;62.83
40155;BME280;25875;48.202;16.334;2023-05-16T06:08:46;98612.38;;;13.76;63.21
40155;BME280;25875;48.202;16.334;2023-05-16T06:11:13;98590.38;;;13.63;62.91
40155;BME280;25875;48.202;16.334;2023-05-16T06:13:40;98608.38;;;13.82;62.95
40155;BME280;25875;48.202;16.334;2023-05-16T06:16:08;98599.31;;;13.85;63.48
40155;BME280;25875;48.202;16.334;2023-05-16T06:18:35;98600.03;;;13.87;62.93
40155;BME280;25875;48.202;16.334;2023-05-16T06:21:02;98609.72;;;13.88;63.33
40155;BME280;25875;48.202;16.334;2023-05-16T06:23:29;98599.78;;;13.90;62.90
40155;BME280;25875;48.202;16.334;2023-05-16T06:25:56;98601.47;;;13.91;63.33
40155;BME280;25875;48.202;16.334;2023-05-16T06:28:22;98595.16;;;13.92;63.32
40155;BME280;25875;48.202;16.334;2023-05-16T06:30:49;98599.53;;;13.93;63.07
40155;BME280;25875;48.202;16.334;2023-05-16T06:33:17;98599.28;;;13.96;62.79
40155;BME280;25875;48.202;16.334;2023-05-16T06:35:44;98605.34;;;13.98;63.10
40155;BME280;25875;48.202;16.334;2023-05-16T06:38:12;98609.69;;;13.99;62.88
40155;BME280;25875;48.202;16.334;2023-05-16T06:40:39;98601.81;;;13.97;63.24
40155;BME280;25875;48.202;16.334;2023-05-16T06:43:05;98607.03;;;13.99;62.87
40155;BME280;25875;48.202;16.334;2023-05-16T06:45:32;98601.56;;;14.00;62.77
40155;BME280;25875;48.202;16.334;2023-05-16T06:47:59;98610.16;;;14.04;63.10
40155;BME280;25875;48.202;16.334;2023-05-16T06:50:27;98610.03;;;14.05;62.96
40155;BME280;25875;48.202;16.334;2023-05-16T06:52:54;98610.63;;;14.09;63.00
40155;BME280;25875;48.202;16.334;2023-05-16T06:55:21;98607.00;;;14.10;62.82
40155;BME280;25875;48.202;16.334;2023-05-16T06:57:48;98606.63;;;14.15;62.63
40155;BME280;25875;48.202;16.334;2023-05-16T07:00:15;98594.03;;;14.17;62.99
40155;BME280;25875;48.202;16.334;2023-05-16T07:02:42;98592.94;;;14.19;62.55
40155;BME280;25875;48.202;16.334;2023-05-16T07:05:09;98596.31;;;14.21;62.44
40155;BME280;25875;48.202;16.334;2023-05-16T07:07:37;98593.66;;;14.21;62.83
40155;BME280;25875;48.202;16.334;2023-05-16T07:10:05;98586.38;;;14.23;62.75
40155;BME280;25875;48.202;16.334;2023-05-16T07:12:31;98593.41;;;14.24;62.61
40155;BME280;25875;48.202;16.334;2023-05-16T07:14:58;98603.81;;;14.27;62.37
40155;BME280;25875;48.202;16.334;2023-05-16T07:17:25;98601.13;;;14.27;62.62
40155;BME280;25875;48.202;16.334;2023-05-16T07:19:52;98609.13;;;14.27;62.65
40155;BME280;25875;48.202;16.334;2023-05-16T07:22:19;98612.78;;;14.26;62.65
40155;BME280;25875;48.202;16.334;2023-05-16T07:24:47;98611.69;;;14.29;62.70
40155;BME280;25875;48.202;16.334;2023-05-16T07:27:13;98613.25;;;14.31;62.37
40155;BME280;25875;48.202;16.334;2023-05-16T07:29:40;98623.06;;;14.31;62.50
40155;BME280;25875;48.202;16.334;2023-05-16T07:32:07;98619.41;;;14.32;62.41
40155;BME280;25875;48.202;16.334;2023-05-16T07:34:34;98610.31;;;14.34;62.48
40155;BME280;25875;48.202;16.334;2023-05-16T07:37:00;98619.16;;;14.35;62.14
40155;BME280;25875;48.202;16.334;2023-05-16T07:39:27;98616.50;;;14.35;62.19
40155;BME280;25875;48.202;16.334;2023-05-16T07:41:58;98622.69;;;14.35;62.36
40155;BME280;25875;48.202;16.334;2023-05-16T07:44:25;98627.28;;;14.33;62.06
40155;BME280;25875;48.202;16.334;2023-05-16T07:46:53;98640.75;;;14.32;61.69
40155;BME280;25875;48.202;16.334;2023-05-16T07:49:19;98638.19;;;14.30;61.52
40155;BME280;25875;48.202;16.334;2023-05-16T07:51:46;98641.72;;;14.31;62.06
40155;BME280;25875;48.202;16.334;2023-05-16T07:54:13;98646.19;;;14.30;61.92
40155;BME280;25875;48.202;16.334;2023-05-16T07:56:39;98653.22;;;14.31;62.25
40155;BME280;25875;48.202;16.334;2023-05-16T07:59:08;98654.06;;;14.32;62.24
40155;BME280;25875;48.202;16.334;2023-05-16T08:01:34;98652.25;;;14.32;62.29
40155;BME280;25875;48.202;16.334;2023-05-16T08:04:01;98664.72;;;14.32;62.50
40155;BME280;25875;48.202;16.334;2023-05-16T08:06:28;98661.94;;;14.33;62.47
40155;BME280;25875;48.202;16.334;2023-05-16T08:08:55;98657.47;;;14.34;62.83
40155;BME280;25875;48.202;16.334;2023-05-16T08:11:22;98645.25;;;14.20;63.09
40155;BME280;25875;48.202;16.334;2023-05-16T08:13:49;98682.28;;;14.34;63.44
40155;BME280;25875;48.202;16.334;2023-05-16T08:16:17;98695.88;;;14.31;63.15
40155;BME280;25875;48.202;16.334;2023-05-16T08:18:44;98708.59;;;14.28;63.48
40155;BME280;25875;48.202;16.334;2023-05-16T08:21:11;98716.84;;;14.25;63.92
40155;BME280;25875;48.202;16.334;2023-05-16T08:23:38;98716.00;;;14.24;64.25
40155;BME280;25875;48.202;16.334;2023-05-16T08:26:05;98717.56;;;14.27;64.66
40155;BME280;25875;48.202;16.334;2023-05-16T08:28:32;98717.81;;;14.24;64.41
40155;BME280;25875;48.202;16.334;2023-05-16T08:30:59;98720.59;;;14.22;64.53
40155;BME280;25875;48.202;16.334;2023-05-16T08:33:27;98720.59;;;14.22;64.59
40155;BME280;25875;48.202;16.334;2023-05-16T08:35:53;98727.75;;;14.22;65.17
40155;BME280;25875;48.202;16.334;2023-05-16T08:38:20;98728.59;;;14.22;65.13
40155;BME280;25875;48.202;16.334;2023-05-16T08:40:47;98729.56;;;14.21;65.61
40155;BME280;25875;48.202;16.334;2023-05-16T08:43:14;98726.28;;;14.18;65.85
40155;BME280;25875;48.202;16.334;2023-05-16T08:45:40;98714.91;;;14.16;66.24
40155;BME280;25875;48.202;16.334;2023-05-16T08:48:09;98712.38;;;14.14;66.42
40155;BME280;25875;48.202;16.334;2023-05-16T08:50:37;98712.50;;;14.12;66.84
40155;BME280;25875;48.202;16.334;2023-05-16T08:53:05;98708.84;;;14.13;67.02
40155;BME280;25875;48.202;16.334;2023-05-16T08:55:34;98701.84;;;14.12;67.22
40155;BME280;25875;48.202;16.334;2023-05-16T08:58:02;98704.50;;;14.12;67.93
40155;BME280;25875;48.202;16.334;2023-05-16T09:00:29;98691.16;;;14.12;68.22
40155;BME280;25875;48.202;16.334;2023-05-16T09:02:56;98695.66;;;14.12;68.75
40155;BME280;25875;48.202;16.334;2023-05-16T09:05:23;98684.88;;;14.13;68.54
40155;BME280;25875;48.202;16.334;2023-05-16T09:07:52;98681.25;;;14.15;68.94
40155;BME280;25875;48.202;16.334;2023-05-16T09:10:19;98665.97;;;14.17;68.98
40155;BME280;25875;48.202;16.334;2023-05-16T09:12:46;98669.47;;;14.17;69.34
40155;BME280;25875;48.202;16.334;2023-05-16T09:15:13;98668.75;;;14.15;70.19
40155;BME280;25875;48.202;16.334;2023-05-16T09:17:42;98670.56;;;14.15;70.11
40155;BME280;25875;48.202;16.334;2023-05-16T09:20:11;98599.78;;;13.78;70.16
40155;BME280;25875;48.202;16.334;2023-05-16T09:22:39;98620.09;;;14.02;70.02
40155;BME280;25875;48.202;16.334;2023-05-16T09:25:15;98642.13;;;14.15;70.76
40155;BME280;25875;48.202;16.334;2023-05-16T09:27:42;98638.47;;;14.16;70.18
40155;BME280;25875;48.202;16.334;2023-05-16T09:30:09;98638.59;;;14.15;70.40
40155;BME280;25875;48.202;16.334;2023-05-16T09:32:42;98638.84;;;14.11;71.36
40155;BME280;25875;48.202;16.334;2023-05-16T09:35:10;98599.31;;;13.85;70.59
40155;BME280;25875;48.202;16.334;2023-05-16T09:37:43;98633.03;;;14.06;70.61
40155;BME280;25875;48.202;16.334;2023-05-16T09:40:12;98634.13;;;14.04;70.91
40155;BME280;25875;48.202;16.334;2023-05-16T09:42:40;98626.28;;;14.02;70.66
40155;BME280;25875;48.202;16.334;2023-05-16T09:45:10;98621.19;;;13.99;71.22
40155;BME280;25875;48.202;16.334;2023-05-16T09:47:38;98563.00;;;13.61;71.13
40155;BME280;25875;48.202;16.334;2023-05-16T09:50:12;98620.59;;;13.96;71.01
40155;BME280;25875;48.202;16.334;2023-05-16T09:52:39;98619.88;;;13.94;71.57
40155;BME280;25875;48.202;16.334;2023-05-16T09:55:06;98622.66;;;13.92;71.70
40155;BME280;25875;48.202;16.334;2023-05-16T09:57:37;98640.56;;;13.90;72.22
40155;BME280;25875;48.202;16.334;2023-05-16T10:00:06;98647.59;;;13.91;71.62
40155;BME280;25875;48.202;16.334;2023-05-16T10:02:36;98641.41;;;13.91;71.66
40155;BME280;25875;48.202;16.334;2023-05-16T10:05:04;98645.91;;;13.90;72.10
40155;BME280;25875;48.202;16.334;2023-05-16T10:07:31;98659.22;;;13.90;71.51
40155;BME280;25875;48.202;16.334;2023-05-16T10:10:00;98659.22;;;13.90;71.02
40155;BME280;25875;48.202;16.334;2023-05-16T10:12:29;98672.66;;;13.89;71.40
40155;BME280;25875;48.202;16.334;2023-05-16T10:14:59;98668.44;;;13.86;71.32
40155;BME280;25875;48.202;16.334;2023-05-16T10:17:29;98676.53;;;13.85;71.10
40155;BME280;25875;48.202;16.334;2023-05-16T10:20:00;98674.97;;;13.82;71.06
40155;BME280;25875;48.202;16.334;2023-05-16T10:22:31;98682.22;;;13.80;70.88
40155;BME280;25875;48.202;16.334;2023-05-16T10:25:06;98685.00;;;13.78;70.77
40155;BME280;25875;48.202;16.334;2023-05-16T10:27:34;98684.28;;;13.76;70.96
40155;BME280;25875;48.202;16.334;2023-05-16T10:30:03;98681.75;;;13.75;70.85
40155;BME280;25875;48.202;16.334;2023-05-16T10:32:31;98609.69;;;13.32;70.71
40155;BME280;25875;48.202;16.334;2023-05-16T10:34:59;98679.81;;;13.77;71.24
40155;BME280;25875;48.202;16.334;2023-05-16T10:37:28;98686.94;;;13.76;71.15
40155;BME280;25875;48.202;16.334;2023-05-16T10:39:56;98685.00;;;13.78;71.40
40155;BME280;25875;48.202;16.334;2023-05-16T10:42:23;98622.53;;;13.38;71.43
40155;BME280;25875;48.202;16.334;2023-05-16T10:44:52;98612.72;;;13.27;72.02
40155;BME280;25875;48.202;16.334;2023-05-16T10:47:21;98692.41;;;13.75;72.65
40155;BME280;25875;48.202;16.334;2023-05-16T10:49:48;98685.50;;;13.72;72.76
40155;BME280;25875;48.202;16.334;2023-05-16T10:52:14;98681.13;;;13.71;72.61
40155;BME280;25875;48.202;16.334;2023-05-16T10:54:49;98676.78;;;13.70;72.58
40155;BME280;25875;48.202;16.334;2023-05-16T10:57:17;98631.59;;;13.35;72.50
40155;BME280;25875;48.202;16.334;2023-05-16T10:59:47;98673.03;;;13.73;73.17
40155;BME280;25875;48.202;16.334;2023-05-16T11:02:24;98669.41;;;13.74;75.03
40155;BME280;25875;48.202;16.334;2023-05-16T11:04:52;98677.38;;;13.74;73.63
40155;BME280;25875;48.202;16.334;2023-05-16T11:07:21;98683.56;;;13.74;73.05
40155;BME280;25875;48.202;16.334;2023-05-16T11:10:03;98687.91;;;13.75;74.29
40155;BME280;25875;48.202;16.334;2023-05-16T11:12:44;98684.53;;;13.73;74.16
40155;BME280;25875;48.202;16.334;2023-05-16T11:15:22;98685.50;;;13.72;73.78
40155;BME280;25875;48.202;16.334;2023-05-16T11:18:02;98671.56;;;13.69;73.61
40155;BME280;25875;48.202;16.334;2023-05-16T11:20:31;98672.53;;;13.68;73.05
40155;BME280;25875;48.202;16.334;2023-05-16T11:23:23;98677.50;;;13.72;74.17
40155;BME280;25875;48.202;16.334;2023-05-16T11:25:53;98672.19;;;13.72;73.04
40155;BME280;25875;48.202;16.334;2023-05-16T11:28:21;98664.91;;;13.74;73.19
40155;BME280;25875;48.202;16.334;2023-05-16T11:30:50;98630.66;;;13.59;73.40
40155;BME280;25875;48.202;16.334;2023-05-16T11:33:21;98600.41;;;13.48;73.60
40155;BME280;25875;48.202;16.334;2023-05-16T11:36:02;98643.38;;;13.77;75.96
40155;BME280;25875;48.202;16.334;2023-05-16T11:38:29;98645.91;;;13.79;74.48
40155;BME280;25875;48.202;16.334;2023-05-16T11:41:02;98643.13;;;13.80;75.58
40155;BME280;25875;48.202;16.334;2023-05-16T11:43:36;98641.31;;;13.81;75.68
40155;BME280;25875;48.202;16.334;2023-05-16T11:46:03;98638.66;;;13.81;75.23
40155;BME280;25875;48.202;16.334;2023-05-16T11:48:31;98632.34;;;13.82;74.73
40155;BME280;25875;48.202;16.334;2023-05-16T11:50:58;98626.91;;;13.84;74.85
40155;BME280;25875;48.202;16.334;2023-05-16T11:53:26;98636.59;;;13.85;74.61
40155;BME280;25875;48.202;16.334;2023-05-16T11:55:53;98636.59;;;13.85;74.59
40155;BME280;25875;48.202;16.334;2023-05-16T11:58:20;98581.66;;;13.50;74.71
40155;BME280;25875;48.202;16.334;2023-05-16T12:00:49;98637.44;;;13.85;75.09
40155;BME280;25875;48.202;16.334;2023-05-16T12:03:17;98632.97;;;13.86;75.22
40155;BME280;25875;48.202;16.334;2023-05-16T12:05:53;98629.19;;;13.88;76.36
40155;BME280;25875;48.202;16.334;2023-05-16T12:08:21;98625.56;;;13.89;75.37
40155;BME280;25875;48.202;16.334;2023-05-16T12:10:49;98614.78;;;13.91;75.42
40155;BME280;25875;48.202;16.334;2023-05-16T12:13:17;98621.69;;;13.93;75.17
40155;BME280;25875;48.202;16.334;2023-05-16T12:15:44;98570.03;;;13.73;75.58
40155;BME280;25875;48.202;16.334;2023-05-16T12:18:11;98606.06;;;14.00;75.82
40155;BME280;25875;48.202;16.334;2023-05-16T12:20:39;98600.72;;;14.00;75.66
40155;BME280;25875;48.202;16.334;2023-05-16T12:23:11;98577.88;;;13.86;76.22
40155;BME280;25875;48.202;16.334;2023-05-16T12:25:39;98592.47;;;14.03;75.57
40155;BME280;25875;48.202;16.334;2023-05-16T12:28:11;98592.22;;;14.06;75.59
40155;BME280;25875;48.202;16.334;2023-05-16T12:30:40;98595.63;;;14.08;75.60
40155;BME280;25875;48.202;16.334;2023-05-16T12:33:09;98596.22;;;14.11;75.65
40155;BME280;25875;48.202;16.334;2023-05-16T12:35:38;98581.06;;;14.12;75.56
40155;BME280;25875;48.202;16.334;2023-05-16T12:38:06;98573.94;;;14.12;75.56
40155;BME280;25875;48.202;16.334;2023-05-16T12:40:35;98550.09;;;14.00;75.44
40155;BME280;25875;48.202;16.334;2023-05-16T12:43:03;98564.84;;;14.15;75.33
40155;BME280;25875;48.202;16.334;2023-05-16T12:45:32;98560.34;;;14.16;75.46
40155;BME280;25875;48.202;16.334;2023-05-16T12:48:03;98569.19;;;14.16;75.82
40155;BME280;25875;48.202;16.334;2023-05-16T12:50:32;98562.03;;;14.17;75.69
40155;BME280;25875;48.202;16.334;2023-05-16T12:52:59;98562.88;;;14.17;75.85
40155;BME280;25875;48.202;16.334;2023-05-16T12:55:26;98559.25;;;14.18;75.85